aviador You're here:

KAQW Decoded Metar

NORTH ADAMS in MA, USA
Report Time2018-05-21 19:52:00
UTC Time2018-05-21 20:27:05
Flight Rules vfr VFR
Wind340° at 05 kt
W.Decomp.*RWY 29: 2.2 kt HW 4.5 kt RCW
W.Rank340° ranks 19
Current wind is below 340° avg. (5.1)
Visibility9999 m
Phenomena:N/A
Clouds:N/A
Expected CloudBase > 6,800 ft AGL from Temp-Dew spread
CeilingNone
Temp23°C (ISA +9)
Dew Point06°C (33% RH)
AAT20.3°C
QNH1020 hPa
Density Alt1,627 ft
Elevation653 ft
Report Wrong Elevation
Raw Report
KAQW 211952Z AUTO 34005KT 10SM CLR 23/06 A3013 RMK AO2 SLP203
T02330056=

Extra information for KAQW:More info

Metar Taf Metar & Taf Last 4 Metars F.Rules Stats Wind Profile Meteogram Temp Stats Airport Information Weather charts Add Link Nearby VenuesMetar ALERT Operation Metar Decoded Social comments

AIRNAV info for KAQW